sensor_id;sensor_type;location;lat;lon;timestamp;temperature;humidity
12254;DHT22;6189;52.526;13.390;2022-07-10T00:00:38;16.20;99.90
12254;DHT22;6189;52.526;13.390;2022-07-10T00:03:23;16.10;99.90
12254;DHT22;6189;52.526;13.390;2022-07-10T00:06:10;16.10;99.90
12254;DHT22;6189;52.526;13.390;2022-07-10T00:08:56;16.10;99.90
12254;DHT22;6189;52.526;13.390;2022-07-10T00:11:42;16.00;99.90
12254;DHT22;6189;52.526;13.390;2022-07-10T00:14:28;16.20;99.90
12254;DHT22;6189;52.526;13.390;2022-07-10T00:17:13;16.30;99.90
12254;DHT22;6189;52.526;13.390;2022-07-10T00:19:59;16.30;99.90
12254;DHT22;6189;52.526;13.390;2022-07-10T00:22:46;16.40;99.90
12254;DHT22;6189;52.526;13.390;2022-07-10T00:25:31;16.30;99.90
12254;DHT22;6189;52.526;13.390;2022-07-10T00:28:17;16.30;99.90
12254;DHT22;6189;52.526;13.390;2022-07-10T00:31:03;16.40;99.90
12254;DHT22;6189;52.526;13.390;2022-07-10T00:33:49;16.50;99.90
12254;DHT22;6189;52.526;13.390;2022-07-10T00:36:35;16.30;99.90
12254;DHT22;6189;52.526;13.390;2022-07-10T00:39:22;16.40;99.90
12254;DHT22;6189;52.526;13.390;2022-07-10T00:42:09;16.40;99.90
12254;DHT22;6189;52.526;13.390;2022-07-10T00:44:56;16.40;99.90
12254;DHT22;6189;52.526;13.390;2022-07-10T00:47:41;16.20;99.90
12254;DHT22;6189;52.526;13.390;2022-07-10T00:50:27;16.10;99.90
12254;DHT22;6189;52.526;13.390;2022-07-10T00:53:13;16.10;99.90
12254;DHT22;6189;52.526;13.390;2022-07-10T00:56:00;16.10;99.90
12254;DHT22;6189;52.526;13.390;2022-07-10T00:58:46;16.20;99.90
12254;DHT22;6189;52.526;13.390;2022-07-10T01:01:32;16.10;99.90
12254;DHT22;6189;52.526;13.390;2022-07-10T01:04:18;16.10;99.90
12254;DHT22;6189;52.526;13.390;2022-07-10T01:07:04;16.20;99.90
12254;DHT22;6189;52.526;13.390;2022-07-10T01:09:50;16.30;99.90
12254;DHT22;6189;52.526;13.390;2022-07-10T01:12:37;16.30;99.90
12254;DHT22;6189;52.526;13.390;2022-07-10T01:15:23;16.00;99.90
12254;DHT22;6189;52.526;13.390;2022-07-10T01:18:08;16.10;99.90
12254;DHT22;6189;52.526;13.390;2022-07-10T01:20:56;16.10;99.90
12254;DHT22;6189;52.526;13.390;2022-07-10T01:23:41;16.10;99.90
12254;DHT22;6189;52.526;13.390;2022-07-10T01:26:27;16.10;99.90
12254;DHT22;6189;52.526;13.390;2022-07-10T01:29:15;16.10;99.90
12254;DHT22;6189;52.526;13.390;2022-07-10T01:32:00;16.20;99.90
12254;DHT22;6189;52.526;13.390;2022-07-10T01:34:46;16.20;99.90
12254;DHT22;6189;52.526;13.390;2022-07-10T01:37:33;16.20;99.90
12254;DHT22;6189;52.526;13.390;2022-07-10T01:40:19;16.20;99.90
12254;DHT22;6189;52.526;13.390;2022-07-10T01:43:05;16.20;99.90
12254;DHT22;6189;52.526;13.390;2022-07-10T01:45:50;16.10;99.90
12254;DHT22;6189;52.526;13.390;2022-07-10T01:48:37;16.10;99.90
12254;DHT22;6189;52.526;13.390;2022-07-10T01:51:22;16.00;99.90
12254;DHT22;6189;52.526;13.390;2022-07-10T01:54:09;15.90;99.90
12254;DHT22;6189;52.526;13.390;2022-07-10T01:56:55;15.90;99.90
12254;DHT22;6189;52.526;13.390;2022-07-10T01:59:40;16.00;99.90
12254;DHT22;6189;52.526;13.390;2022-07-10T02:02:26;16.00;99.90
12254;DHT22;6189;52.526;13.390;2022-07-10T02:05:12;16.00;99.90
12254;DHT22;6189;52.526;13.390;2022-07-10T02:07:56;16.00;99.90
12254;DHT22;6189;52.526;13.390;2022-07-10T02:10:44;15.90;99.90
12254;DHT22;6189;52.526;13.390;2022-07-10T02:13:30;15.90;99.90
12254;DHT22;6189;52.526;13.390;2022-07-10T02:16:16;15.80;99.90
12254;DHT22;6189;52.526;13.390;2022-07-10T02:19:01;15.70;99.90
12254;DHT22;6189;52.526;13.390;2022-07-10T02:21:47;15.70;99.90
12254;DHT22;6189;52.526;13.390;2022-07-10T02:24:32;15.60;99.90
12254;DHT22;6189;52.526;13.390;2022-07-10T02:27:19;15.70;99.90
12254;DHT22;6189;52.526;13.390;2022-07-10T02:30:06;15.70;99.90
12254;DHT22;6189;52.526;13.390;2022-07-10T02:32:51;15.80;99.90
12254;DHT22;6189;52.526;13.390;2022-07-10T02:35:37;15.70;99.90
12254;DHT22;6189;52.526;13.390;2022-07-10T02:38:22;15.80;99.90
12254;DHT22;6189;52.526;13.390;2022-07-10T02:41:08;15.90;99.90
12254;DHT22;6189;52.526;13.390;2022-07-10T02:43:54;15.80;99.90
12254;DHT22;6189;52.526;13.390;2022-07-10T02:46:40;15.80;99.90
12254;DHT22;6189;52.526;13.390;2022-07-10T02:49:25;15.70;99.90
12254;DHT22;6189;52.526;13.390;2022-07-10T02:52:11;15.60;99.90
12254;DHT22;6189;52.526;13.390;2022-07-10T02:54:56;15.60;99.90
12254;DHT22;6189;52.526;13.390;2022-07-10T02:57:42;15.50;99.90
12254;DHT22;6189;52.526;13.390;2022-07-10T03:00:28;15.50;99.90
12254;DHT22;6189;52.526;13.390;2022-07-10T03:03:15;15.60;99.90
12254;DHT22;6189;52.526;13.390;2022-07-10T03:06:01;15.60;99.90
12254;DHT22;6189;52.526;13.390;2022-07-10T03:08:47;15.60;99.90
12254;DHT22;6189;52.526;13.390;2022-07-10T03:11:32;15.60;99.90
12254;DHT22;6189;52.526;13.390;2022-07-10T03:14:18;15.60;99.90
12254;DHT22;6189;52.526;13.390;2022-07-10T03:17:05;15.50;99.90
12254;DHT22;6189;52.526;13.390;2022-07-10T03:19:50;15.50;99.90
12254;DHT22;6189;52.526;13.390;2022-07-10T03:22:36;15.60;99.90
12254;DHT22;6189;52.526;13.390;2022-07-10T03:25:22;15.60;99.90
12254;DHT22;6189;52.526;13.390;2022-07-10T03:28:07;15.50;99.90
12254;DHT22;6189;52.526;13.390;2022-07-10T03:30:53;15.60;99.90
12254;DHT22;6189;52.526;13.390;2022-07-10T03:33:40;15.50;99.90
12254;DHT22;6189;52.526;13.390;2022-07-10T03:36:25;15.40;99.90
12254;DHT22;6189;52.526;13.390;2022-07-10T03:39:11;15.40;99.90
12254;DHT22;6189;52.526;13.390;2022-07-10T03:41:57;15.50;99.90
12254;DHT22;6189;52.526;13.390;2022-07-10T03:44:42;15.60;99.90
12254;DHT22;6189;52.526;13.390;2022-07-10T03:47:28;15.60;99.90
12254;DHT22;6189;52.526;13.390;2022-07-10T03:50:15;15.50;99.90
12254;DHT22;6189;52.526;13.390;2022-07-10T03:53:01;15.50;99.90
12254;DHT22;6189;52.526;13.390;2022-07-10T03:55:47;15.50;99.90
12254;DHT22;6189;52.526;13.390;2022-07-10T03:58:32;15.40;99.90
12254;DHT22;6189;52.526;13.390;2022-07-10T04:01:17;15.50;99.90
12254;DHT22;6189;52.526;13.390;2022-07-10T04:04:03;15.60;99.90
12254;DHT22;6189;52.526;13.390;2022-07-10T04:06:50;15.60;99.90
12254;DHT22;6189;52.526;13.390;2022-07-10T04:09:35;15.60;99.90
12254;DHT22;6189;52.526;13.390;2022-07-10T04:12:20;15.70;99.90
12254;DHT22;6189;52.526;13.390;2022-07-10T04:15:07;15.60;99.90
12254;DHT22;6189;52.526;13.390;2022-07-10T04:17:52;15.40;99.90
12254;DHT22;6189;52.526;13.390;2022-07-10T04:20:38;15.40;99.90
12254;DHT22;6189;52.526;13.390;2022-07-10T04:23:25;15.70;99.90
12254;DHT22;6189;52.526;13.390;2022-07-10T04:26:10;15.60;99.90
12254;DHT22;6189;52.526;13.390;2022-07-10T04:28:56;15.40;99.90
12254;DHT22;6189;52.526;13.390;2022-07-10T04:31:41;15.40;99.90
12254;DHT22;6189;52.526;13.390;2022-07-10T04:34:27;15.50;99.90
12254;DHT22;6189;52.526;13.390;2022-07-10T04:37:13;15.30;99.90
12254;DHT22;6189;52.526;13.390;2022-07-10T04:40:00;15.40;99.90
12254;DHT22;6189;52.526;13.390;2022-07-10T04:42:45;15.40;99.90
12254;DHT22;6189;52.526;13.390;2022-07-10T04:45:31;15.40;99.90
12254;DHT22;6189;52.526;13.390;2022-07-10T04:48:16;15.40;99.90
12254;DHT22;6189;52.526;13.390;2022-07-10T04:51:01;15.50;99.90
12254;DHT22;6189;52.526;13.390;2022-07-10T04:53:47;15.40;99.90
12254;DHT22;6189;52.526;13.390;2022-07-10T04:56:34;15.40;99.90
12254;DHT22;6189;52.526;13.390;2022-07-10T04:59:20;15.40;99.90
12254;DHT22;6189;52.526;13.390;2022-07-10T05:02:05;15.40;99.90
12254;DHT22;6189;52.526;13.390;2022-07-10T05:04:52;15.40;99.90
12254;DHT22;6189;52.526;13.390;2022-07-10T05:07:37;15.40;99.90
12254;DHT22;6189;52.526;13.390;2022-07-10T05:10:23;15.40;99.90
12254;DHT22;6189;52.526;13.390;2022-07-10T05:13:10;15.40;99.90
12254;DHT22;6189;52.526;13.390;2022-07-10T05:15:55;15.40;99.90
12254;DHT22;6189;52.526;13.390;2022-07-10T05:18:41;15.30;99.90
12254;DHT22;6189;52.526;13.390;2022-07-10T05:21:27;15.40;99.90
12254;DHT22;6189;52.526;13.390;2022-07-10T05:24:13;15.30;99.90
12254;DHT22;6189;52.526;13.390;2022-07-10T05:26:58;15.40;99.90
12254;DHT22;6189;52.526;13.390;2022-07-10T05:29:45;15.40;99.90
12254;DHT22;6189;52.526;13.390;2022-07-10T05:32:30;15.50;99.90
12254;DHT22;6189;52.526;13.390;2022-07-10T05:35:16;15.60;99.90
12254;DHT22;6189;52.526;13.390;2022-07-10T05:38:02;15.70;99.90
12254;DHT22;6189;52.526;13.390;2022-07-10T05:40:47;15.50;99.90
12254;DHT22;6189;52.526;13.390;2022-07-10T05:43:33;15.70;99.90
12254;DHT22;6189;52.526;13.390;2022-07-10T05:46:19;15.80;99.90
12254;DHT22;6189;52.526;13.390;2022-07-10T05:49:05;15.70;99.90
12254;DHT22;6189;52.526;13.390;2022-07-10T05:51:50;15.70;99.90
12254;DHT22;6189;52.526;13.390;2022-07-10T05:54:36;15.80;99.90
12254;DHT22;6189;52.526;13.390;2022-07-10T05:57:21;15.80;99.90
12254;DHT22;6189;52.526;13.390;2022-07-10T06:00:09;15.80;99.90
12254;DHT22;6189;52.526;13.390;2022-07-10T06:02:56;15.80;99.90
12254;DHT22;6189;52.526;13.390;2022-07-10T06:05:41;16.00;99.90
12254;DHT22;6189;52.526;13.390;2022-07-10T06:08:27;16.10;99.90
12254;DHT22;6189;52.526;13.390;2022-07-10T06:11:12;16.10;99.90
12254;DHT22;6189;52.526;13.390;2022-07-10T06:13:58;16.00;99.90
12254;DHT22;6189;52.526;13.390;2022-07-10T06:16:43;16.00;99.90
12254;DHT22;6189;52.526;13.390;2022-07-10T06:19:30;15.90;99.90
12254;DHT22;6189;52.526;13.390;2022-07-10T06:22:16;15.90;99.90
12254;DHT22;6189;52.526;13.390;2022-07-10T06:25:17;15.90;99.90
12254;DHT22;6189;52.526;13.390;2022-07-10T06:28:03;16.00;99.90
12254;DHT22;6189;52.526;13.390;2022-07-10T06:30:49;16.10;99.90
12254;DHT22;6189;52.526;13.390;2022-07-10T06:33:34;16.10;99.90
12254;DHT22;6189;52.526;13.390;2022-07-10T06:36:22;16.00;99.90
12254;DHT22;6189;52.526;13.390;2022-07-10T06:39:07;16.10;99.90
12254;DHT22;6189;52.526;13.390;2022-07-10T06:41:53;16.20;99.90
12254;DHT22;6189;52.526;13.390;2022-07-10T06:44:38;16.20;99.90
12254;DHT22;6189;52.526;13.390;2022-07-10T06:47:23;16.10;99.90
12254;DHT22;6189;52.526;13.390;2022-07-10T06:50:28;16.10;99.90
12254;DHT22;6189;52.526;13.390;2022-07-10T06:53:16;16.20;99.90
12254;DHT22;6189;52.526;13.390;2022-07-10T06:56:02;16.40;99.90
12254;DHT22;6189;52.526;13.390;2022-07-10T06:58:47;16.60;99.90
12254;DHT22;6189;52.526;13.390;2022-07-10T07:01:32;16.60;99.90
12254;DHT22;6189;52.526;13.390;2022-07-10T07:04:18;16.50;99.90
12254;DHT22;6189;52.526;13.390;2022-07-10T07:07:04;16.40;99.90
12254;DHT22;6189;52.526;13.390;2022-07-10T07:09:50;16.40;99.90
12254;DHT22;6189;52.526;13.390;2022-07-10T07:12:36;16.30;99.90
12254;DHT22;6189;52.526;13.390;2022-07-10T07:15:22;16.60;99.90
12254;DHT22;6189;52.526;13.390;2022-07-10T07:18:08;16.50;99.90
12254;DHT22;6189;52.526;13.390;2022-07-10T07:20:56;16.50;99.90
12254;DHT22;6189;52.526;13.390;2022-07-10T07:24:14;16.60;99.90
12254;DHT22;6189;52.526;13.390;2022-07-10T07:27:01;16.70;99.90
12254;DHT22;6189;52.526;13.390;2022-07-10T07:29:46;16.80;99.90
12254;DHT22;6189;52.526;13.390;2022-07-10T07:32:32;16.90;99.90
12254;DHT22;6189;52.526;13.390;2022-07-10T07:35:33;17.00;99.90
12254;DHT22;6189;52.526;13.390;2022-07-10T07:38:18;17.20;99.90
12254;DHT22;6189;52.526;13.390;2022-07-10T07:41:04;17.20;99.90
12254;DHT22;6189;52.526;13.390;2022-07-10T07:43:49;17.20;99.90
12254;DHT22;6189;52.526;13.390;2022-07-10T07:46:35;17.00;99.90
12254;DHT22;6189;52.526;13.390;2022-07-10T07:49:20;16.90;99.90
12254;DHT22;6189;52.526;13.390;2022-07-10T07:52:08;17.00;99.90
12254;DHT22;6189;52.526;13.390;2022-07-10T07:54:53;17.00;99.90
12254;DHT22;6189;52.526;13.390;2022-07-10T07:57:39;17.00;99.90
12254;DHT22;6189;52.526;13.390;2022-07-10T08:00:27;17.10;99.90
12254;DHT22;6189;52.526;13.390;2022-07-10T08:03:13;17.20;99.90
12254;DHT22;6189;52.526;13.390;2022-07-10T08:05:58;17.40;99.90
12254;DHT22;6189;52.526;13.390;2022-07-10T08:08:45;17.30;99.90
12254;DHT22;6189;52.526;13.390;2022-07-10T08:11:30;17.40;99.90
12254;DHT22;6189;52.526;13.390;2022-07-10T08:14:16;17.50;99.90
12254;DHT22;6189;52.526;13.390;2022-07-10T08:17:02;17.70;99.90
12254;DHT22;6189;52.526;13.390;2022-07-10T08:19:48;17.90;99.90
12254;DHT22;6189;52.526;13.390;2022-07-10T08:22:34;18.20;99.90
12254;DHT22;6189;52.526;13.390;2022-07-10T08:25:21;18.20;99.90
12254;DHT22;6189;52.526;13.390;2022-07-10T08:28:07;18.30;99.90
12254;DHT22;6189;52.526;13.390;2022-07-10T08:30:53;18.20;99.90
12254;DHT22;6189;52.526;13.390;2022-07-10T08:33:39;18.10;99.90
12254;DHT22;6189;52.526;13.390;2022-07-10T08:36:25;18.00;99.90
12254;DHT22;6189;52.526;13.390;2022-07-10T08:39:11;17.90;99.90
12254;DHT22;6189;52.526;13.390;2022-07-10T08:41:58;17.90;99.90
12254;DHT22;6189;52.526;13.390;2022-07-10T08:44:43;18.00;99.90
12254;DHT22;6189;52.526;13.390;2022-07-10T08:47:29;17.90;99.90
12254;DHT22;6189;52.526;13.390;2022-07-10T08:50:18;17.90;99.90
12254;DHT22;6189;52.526;13.390;2022-07-10T08:53:08;18.00;99.90
12254;DHT22;6189;52.526;13.390;2022-07-10T08:55:57;17.80;99.90
12254;DHT22;6189;52.526;13.390;2022-07-10T08:58:45;18.00;99.90
12254;DHT22;6189;52.526;13.390;2022-07-10T09:01:32;18.00;99.90
12254;DHT22;6189;52.526;13.390;2022-07-10T09:04:21;17.90;99.90
12254;DHT22;6189;52.526;13.390;2022-07-10T09:07:07;18.00;99.90
12254;DHT22;6189;52.526;13.390;2022-07-10T09:09:53;18.10;99.90
12254;DHT22;6189;52.526;13.390;2022-07-10T09:12:58;18.00;99.90
12254;DHT22;6189;52.526;13.390;2022-07-10T09:15:49;17.90;99.90
12254;DHT22;6189;52.526;13.390;2022-07-10T09:18:35;18.00;99.90
12254;DHT22;6189;52.526;13.390;2022-07-10T09:21:21;18.30;99.90
12254;DHT22;6189;52.526;13.390;2022-07-10T09:24:08;18.50;99.90
12254;DHT22;6189;52.526;13.390;2022-07-10T09:27:01;18.40;99.90
12254;DHT22;6189;52.526;13.390;2022-07-10T09:29:49;18.20;99.90
12254;DHT22;6189;52.526;13.390;2022-07-10T09:32:40;18.50;99.90
12254;DHT22;6189;52.526;13.390;2022-07-10T09:35:26;18.70;99.60
12254;DHT22;6189;52.526;13.390;2022-07-10T09:38:51;18.80;99.10
12254;DHT22;6189;52.526;13.390;2022-07-10T09:41:38;18.90;98.70
12254;DHT22;6189;52.526;13.390;2022-07-10T09:44:23;18.60;98.60
12254;DHT22;6189;52.526;13.390;2022-07-10T09:47:21;18.60;99.40
12254;DHT22;6189;52.526;13.390;2022-07-10T09:50:19;18.80;99.40
12254;DHT22;6189;52.526;13.390;2022-07-10T09:53:06;18.80;99.50
12254;DHT22;6189;52.526;13.390;2022-07-10T09:55:55;18.70;98.20
12254;DHT22;6189;52.526;13.390;2022-07-10T09:58:42;18.60;98.10
12254;DHT22;6189;52.526;13.390;2022-07-10T10:01:30;18.60;98.80
12254;DHT22;6189;52.526;13.390;2022-07-10T10:04:17;18.80;98.50
12254;DHT22;6189;52.526;13.390;2022-07-10T10:07:09;18.60;98.40
12254;DHT22;6189;52.526;13.390;2022-07-10T10:09:59;18.50;98.80
12254;DHT22;6189;52.526;13.390;2022-07-10T10:12:50;18.40;98.80
12254;DHT22;6189;52.526;13.390;2022-07-10T10:15:37;18.50;98.50
12254;DHT22;6189;52.526;13.390;2022-07-10T10:18:24;18.30;98.90
12254;DHT22;6189;52.526;13.390;2022-07-10T10:21:10;18.40;98.30
12254;DHT22;6189;52.526;13.390;2022-07-10T10:23:57;18.50;98.10
12254;DHT22;6189;52.526;13.390;2022-07-10T10:26:43;18.70;98.00
12254;DHT22;6189;52.526;13.390;2022-07-10T10:29:30;18.80;97.70
12254;DHT22;6189;52.526;13.390;2022-07-10T10:32:16;18.80;97.30
12254;DHT22;6189;52.526;13.390;2022-07-10T10:35:01;19.00;97.50
12254;DHT22;6189;52.526;13.390;2022-07-10T10:37:50;18.80;96.00
12254;DHT22;6189;52.526;13.390;2022-07-10T10:40:38;18.80;94.60
12254;DHT22;6189;52.526;13.390;2022-07-10T10:43:24;18.70;94.80
12254;DHT22;6189;52.526;13.390;2022-07-10T10:46:23;18.60;95.30
12254;DHT22;6189;52.526;13.390;2022-07-10T10:49:09;18.90;94.70
12254;DHT22;6189;52.526;13.390;2022-07-10T10:51:57;18.90;94.50
12254;DHT22;6189;52.526;13.390;2022-07-10T10:55:00;19.00;93.50
12254;DHT22;6189;52.526;13.390;2022-07-10T10:57:49;19.00;93.60
12254;DHT22;6189;52.526;13.390;2022-07-10T11:00:36;19.30;93.00
12254;DHT22;6189;52.526;13.390;2022-07-10T11:03:25;19.20;92.80
12254;DHT22;6189;52.526;13.390;2022-07-10T11:06:12;19.00;92.70
12254;DHT22;6189;52.526;13.390;2022-07-10T11:08:59;19.00;93.50
12254;DHT22;6189;52.526;13.390;2022-07-10T11:11:57;19.00;93.00
12254;DHT22;6189;52.526;13.390;2022-07-10T11:14:46;19.00;92.80
12254;DHT22;6189;52.526;13.390;2022-07-10T11:17:34;19.00;93.40
12254;DHT22;6189;52.526;13.390;2022-07-10T11:20:20;19.00;93.00
12254;DHT22;6189;52.526;13.390;2022-07-10T11:23:37;19.30;93.30
12254;DHT22;6189;52.526;13.390;2022-07-10T11:26:35;19.50;91.80
12254;DHT22;6189;52.526;13.390;2022-07-10T11:29:21;19.50;91.90
12254;DHT22;6189;52.526;13.390;2022-07-10T11:32:09;19.50;92.10
12254;DHT22;6189;52.526;13.390;2022-07-10T11:34:56;19.60;92.50
12254;DHT22;6189;52.526;13.390;2022-07-10T11:37:49;19.50;92.20
12254;DHT22;6189;52.526;13.390;2022-07-10T11:40:36;19.60;93.00
12254;DHT22;6189;52.526;13.390;2022-07-10T11:43:22;20.10;91.70
12254;DHT22;6189;52.526;13.390;2022-07-10T11:46:09;20.40;91.50
12254;DHT22;6189;52.526;13.390;2022-07-10T11:48:57;20.50;90.80
12254;DHT22;6189;52.526;13.390;2022-07-10T11:51:43;20.50;90.00
12254;DHT22;6189;52.526;13.390;2022-07-10T11:54:29;20.80;90.00
12254;DHT22;6189;52.526;13.390;2022-07-10T11:57:15;21.00;89.20
12254;DHT22;6189;52.526;13.390;2022-07-10T12:03:17;20.70;87.40
12254;DHT22;6189;52.526;13.390;2022-07-10T12:06:05;20.00;90.20
12254;DHT22;6189;52.526;13.390;2022-07-10T12:08:52;19.90;90.40
12254;DHT22;6189;52.526;13.390;2022-07-10T12:11:37;19.80;90.80
12254;DHT22;6189;52.526;13.390;2022-07-10T12:14:23;19.90;91.40
12254;DHT22;6189;52.526;13.390;2022-07-10T12:17:10;20.00;88.10
12254;DHT22;6189;52.526;13.390;2022-07-10T12:19:56;20.20;88.40
12254;DHT22;6189;52.526;13.390;2022-07-10T12:22:43;20.60;87.60
12254;DHT22;6189;52.526;13.390;2022-07-10T12:25:29;21.00;85.80
12254;DHT22;6189;52.526;13.390;2022-07-10T12:28:15;21.10;84.00
12254;DHT22;6189;52.526;13.390;2022-07-10T12:31:00;20.90;83.40
12254;DHT22;6189;52.526;13.390;2022-07-10T12:33:50;20.70;84.10
12254;DHT22;6189;52.526;13.390;2022-07-10T12:36:44;20.40;85.60
12254;DHT22;6189;52.526;13.390;2022-07-10T12:39:31;20.30;87.60
12254;DHT22;6189;52.526;13.390;2022-07-10T12:42:28;20.20;87.40
12254;DHT22;6189;52.526;13.390;2022-07-10T12:45:14;20.30;86.20
12254;DHT22;6189;52.526;13.390;2022-07-10T12:48:00;20.30;86.30
12254;DHT22;6189;52.526;13.390;2022-07-10T12:50:48;20.30;86.90
12254;DHT22;6189;52.526;13.390;2022-07-10T12:53:44;20.30;84.40
12254;DHT22;6189;52.526;13.390;2022-07-10T12:56:34;20.10;85.00
12254;DHT22;6189;52.526;13.390;2022-07-10T12:59:21;20.10;85.80
12254;DHT22;6189;52.526;13.390;2022-07-10T13:02:15;20.30;86.20
12254;DHT22;6189;52.526;13.390;2022-07-10T13:05:01;20.50;85.60
12254;DHT22;6189;52.526;13.390;2022-07-10T13:07:47;20.60;84.00
12254;DHT22;6189;52.526;13.390;2022-07-10T13:10:32;21.00;83.60
12254;DHT22;6189;52.526;13.390;2022-07-10T13:13:19;21.10;80.60
12254;DHT22;6189;52.526;13.390;2022-07-10T13:16:06;20.60;82.60
12254;DHT22;6189;52.526;13.390;2022-07-10T13:18:51;20.40;83.90
12254;DHT22;6189;52.526;13.390;2022-07-10T13:21:38;20.40;84.60
12254;DHT22;6189;52.526;13.390;2022-07-10T13:24:24;20.60;83.90
12254;DHT22;6189;52.526;13.390;2022-07-10T13:27:11;20.60;84.80
12254;DHT22;6189;52.526;13.390;2022-07-10T13:29:58;20.60;83.40
12254;DHT22;6189;52.526;13.390;2022-07-10T13:32:43;20.70;82.90
12254;DHT22;6189;52.526;13.390;2022-07-10T13:35:29;21.30;81.90
12254;DHT22;6189;52.526;13.390;2022-07-10T13:38:17;21.30;80.80
12254;DHT22;6189;52.526;13.390;2022-07-10T13:41:04;21.40;79.90
12254;DHT22;6189;52.526;13.390;2022-07-10T13:43:50;21.50;80.00
12254;DHT22;6189;52.526;13.390;2022-07-10T13:46:37;21.20;79.20
12254;DHT22;6189;52.526;13.390;2022-07-10T13:49:24;21.00;79.90
12254;DHT22;6189;52.526;13.390;2022-07-10T13:52:11;20.90;79.50
12254;DHT22;6189;52.526;13.390;2022-07-10T13:54:56;20.90;79.70
12254;DHT22;6189;52.526;13.390;2022-07-10T13:57:43;20.70;81.10
12254;DHT22;6189;52.526;13.390;2022-07-10T14:00:28;20.40;81.10
12254;DHT22;6189;52.526;13.390;2022-07-10T14:03:15;20.80;80.40
12254;DHT22;6189;52.526;13.390;2022-07-10T14:06:01;21.40;77.80
12254;DHT22;6189;52.526;13.390;2022-07-10T14:08:46;21.80;75.50
12254;DHT22;6189;52.526;13.390;2022-07-10T14:11:32;21.40;76.10
12254;DHT22;6189;52.526;13.390;2022-07-10T14:14:18;21.20;76.40
12254;DHT22;6189;52.526;13.390;2022-07-10T14:17:04;21.40;77.30
12254;DHT22;6189;52.526;13.390;2022-07-10T14:19:51;21.70;75.10
12254;DHT22;6189;52.526;13.390;2022-07-10T14:22:36;21.90;75.90
12254;DHT22;6189;52.526;13.390;2022-07-10T14:25:25;22.40;72.50
12254;DHT22;6189;52.526;13.390;2022-07-10T14:28:12;22.50;72.20
12254;DHT22;6189;52.526;13.390;2022-07-10T14:30:58;22.50;72.60
12254;DHT22;6189;52.526;13.390;2022-07-10T14:33:46;22.80;71.20
12254;DHT22;6189;52.526;13.390;2022-07-10T14:36:33;23.10;69.40
12254;DHT22;6189;52.526;13.390;2022-07-10T14:39:19;23.00;68.60
12254;DHT22;6189;52.526;13.390;2022-07-10T14:42:05;22.80;69.10
12254;DHT22;6189;52.526;13.390;2022-07-10T14:44:50;23.10;70.30
12254;DHT22;6189;52.526;13.390;2022-07-10T14:47:36;23.00;67.00
12254;DHT22;6189;52.526;13.390;2022-07-10T14:50:22;23.00;65.70
12254;DHT22;6189;52.526;13.390;2022-07-10T14:53:09;22.60;66.80
12254;DHT22;6189;52.526;13.390;2022-07-10T14:55:55;22.70;67.20
12254;DHT22;6189;52.526;13.390;2022-07-10T14:58:40;22.80;67.60
12254;DHT22;6189;52.526;13.390;2022-07-10T15:01:26;22.90;67.10
12254;DHT22;6189;52.526;13.390;2022-07-10T15:04:12;23.10;70.20
12254;DHT22;6189;52.526;13.390;2022-07-10T15:06:57;23.20;65.90
12254;DHT22;6189;52.526;13.390;2022-07-10T15:09:44;22.80;66.10
12254;DHT22;6189;52.526;13.390;2022-07-10T15:12:30;22.60;67.00
12254;DHT22;6189;52.526;13.390;2022-07-10T15:15:17;22.60;65.80
12254;DHT22;6189;52.526;13.390;2022-07-10T15:18:03;22.50;64.70
12254;DHT22;6189;52.526;13.390;2022-07-10T15:20:48;22.40;65.90
12254;DHT22;6189;52.526;13.390;2022-07-10T15:23:34;22.40;65.20
12254;DHT22;6189;52.526;13.390;2022-07-10T15:26:21;22.30;65.10
12254;DHT22;6189;52.526;13.390;2022-07-10T15:29:07;22.30;65.50
12254;DHT22;6189;52.526;13.390;2022-07-10T15:31:52;22.10;65.70
12254;DHT22;6189;52.526;13.390;2022-07-10T15:34:38;21.90;67.40
12254;DHT22;6189;52.526;13.390;2022-07-10T15:37:24;21.90;66.30
12254;DHT22;6189;52.526;13.390;2022-07-10T15:40:10;21.90;66.50
12254;DHT22;6189;52.526;13.390;2022-07-10T15:42:57;22.00;66.80
12254;DHT22;6189;52.526;13.390;2022-07-10T15:45:43;22.00;65.90
12254;DHT22;6189;52.526;13.390;2022-07-10T15:48:28;22.00;67.20
12254;DHT22;6189;52.526;13.390;2022-07-10T15:51:14;21.90;67.60
12254;DHT22;6189;52.526;13.390;2022-07-10T15:54:00;22.00;67.40
12254;DHT22;6189;52.526;13.390;2022-07-10T15:56:45;22.10;67.10
12254;DHT22;6189;52.526;13.390;2022-07-10T15:59:33;22.00;67.20
12254;DHT22;6189;52.526;13.390;2022-07-10T16:02:19;22.00;68.60
12254;DHT22;6189;52.526;13.390;2022-07-10T16:05:05;21.80;66.70
12254;DHT22;6189;52.526;13.390;2022-07-10T16:07:51;21.70;67.80
12254;DHT22;6189;52.526;13.390;2022-07-10T16:10:37;21.70;68.30
12254;DHT22;6189;52.526;13.390;2022-07-10T16:13:23;21.70;67.80
12254;DHT22;6189;52.526;13.390;2022-07-10T16:16:09;21.40;68.60
12254;DHT22;6189;52.526;13.390;2022-07-10T16:18:55;21.50;69.00
12254;DHT22;6189;52.526;13.390;2022-07-10T16:21:41;21.60;71.10
12254;DHT22;6189;52.526;13.390;2022-07-10T16:24:27;21.50;68.70
12254;DHT22;6189;52.526;13.390;2022-07-10T16:27:14;21.20;69.80
12254;DHT22;6189;52.526;13.390;2022-07-10T16:29:59;21.30;69.90
12254;DHT22;6189;52.526;13.390;2022-07-10T16:32:46;21.20;69.70
12254;DHT22;6189;52.526;13.390;2022-07-10T16:35:32;21.20;69.60
12254;DHT22;6189;52.526;13.390;2022-07-10T16:38:18;21.00;70.40
12254;DHT22;6189;52.526;13.390;2022-07-10T16:41:04;21.00;70.20
12254;DHT22;6189;52.526;13.390;2022-07-10T16:43:50;20.80;70.30
12254;DHT22;6189;52.526;13.390;2022-07-10T16:46:35;20.80;70.60
12254;DHT22;6189;52.526;13.390;2022-07-10T16:49:22;20.80;71.90
12254;DHT22;6189;52.526;13.390;2022-07-10T16:52:08;20.90;71.50
12254;DHT22;6189;52.526;13.390;2022-07-10T16:54:54;21.00;71.40
12254;DHT22;6189;52.526;13.390;2022-07-10T16:57:43;21.00;69.70
12254;DHT22;6189;52.526;13.390;2022-07-10T17:00:29;21.10;69.50
12254;DHT22;6189;52.526;13.390;2022-07-10T17:03:14;21.00;69.30
12254;DHT22;6189;52.526;13.390;2022-07-10T17:06:01;21.00;71.20
12254;DHT22;6189;52.526;13.390;2022-07-10T17:08:47;21.10;70.60
12254;DHT22;6189;52.526;13.390;2022-07-10T17:11:32;21.00;69.40
12254;DHT22;6189;52.526;13.390;2022-07-10T17:14:18;20.90;69.60
12254;DHT22;6189;52.526;13.390;2022-07-10T17:17:04;20.70;69.70
12254;DHT22;6189;52.526;13.390;2022-07-10T17:19:49;20.60;70.60
12254;DHT22;6189;52.526;13.390;2022-07-10T17:22:37;20.60;71.10
12254;DHT22;6189;52.526;13.390;2022-07-10T17:25:24;20.70;71.00
12254;DHT22;6189;52.526;13.390;2022-07-10T17:28:09;20.70;70.70
12254;DHT22;6189;52.526;13.390;2022-07-10T17:30:56;20.50;70.70
12254;DHT22;6189;52.526;13.390;2022-07-10T17:33:42;20.50;71.50
12254;DHT22;6189;52.526;13.390;2022-07-10T17:36:27;20.40;72.90